sensor_id;sensor_type;location;lat;lon;timestamp;P1;durP1;ratioP1;P2;durP2;ratioP2
1925;SDS011;964;42.606;23.588;2024-03-23T00:52:00;13.10;;;7.20;;
1925;SDS011;964;42.606;23.588;2024-03-23T00:54:26;23.13;;;9.43;;
1925;SDS011;964;42.606;23.588;2024-03-23T00:56:53;23.03;;;9.73;;
1925;SDS011;964;42.606;23.588;2024-03-23T00:59:18;14.70;;;7.20;;
1925;SDS011;964;42.606;23.588;2024-03-23T01:01:47;19.23;;;8.50;;
1925;SDS011;964;42.606;23.588;2024-03-23T01:04:13;15.20;;;7.30;;
1925;SDS011;964;42.606;23.588;2024-03-23T01:06:39;17.40;;;9.47;;
1925;SDS011;964;42.606;23.588;2024-03-23T01:09:06;7.17;;;4.30;;
1925;SDS011;964;42.606;23.588;2024-03-23T01:11:35;11.43;;;5.50;;
1925;SDS011;964;42.606;23.588;2024-03-23T01:14:01;8.30;;;5.03;;
1925;SDS011;964;42.606;23.588;2024-03-23T01:16:28;20.43;;;8.27;;
1925;SDS011;964;42.606;23.588;2024-03-23T01:18:54;38.60;;;12.80;;
1925;SDS011;964;42.606;23.588;2024-03-23T01:21:21;31.07;;;11.97;;
1925;SDS011;964;42.606;23.588;2024-03-23T01:23:46;22.93;;;10.43;;
1925;SDS011;964;42.606;23.588;2024-03-23T01:26:15;9.70;;;6.50;;
1925;SDS011;964;42.606;23.588;2024-03-23T01:28:40;7.40;;;5.30;;
1925;SDS011;964;42.606;23.588;2024-03-23T01:31:07;10.37;;;5.80;;
1925;SDS011;964;42.606;23.588;2024-03-23T01:33:33;12.20;;;6.33;;
1925;SDS011;964;42.606;23.588;2024-03-23T01:36:00;12.90;;;6.60;;
1925;SDS011;964;42.606;23.588;2024-03-23T01:38:25;13.73;;;8.00;;
1925;SDS011;964;42.606;23.588;2024-03-23T01:40:56;9.13;;;6.30;;
1925;SDS011;964;42.606;23.588;2024-03-23T01:43:23;14.33;;;7.80;;
1925;SDS011;964;42.606;23.588;2024-03-23T01:45:51;15.17;;;7.03;;
1925;SDS011;964;42.606;23.588;2024-03-23T01:48:18;10.30;;;5.90;;
1925;SDS011;964;42.606;23.588;2024-03-23T01:50:45;10.70;;;6.67;;
1925;SDS011;964;42.606;23.588;2024-03-23T01:53:11;10.20;;;6.23;;
1925;SDS011;964;42.606;23.588;2024-03-23T01:55:42;8.47;;;5.60;;
1925;SDS011;964;42.606;23.588;2024-03-23T01:58:08;10.10;;;6.07;;
1925;SDS011;964;42.606;23.588;2024-03-23T02:00:36;9.37;;;6.10;;
1925;SDS011;964;42.606;23.588;2024-03-23T02:03:02;10.47;;;5.73;;
1925;SDS011;964;42.606;23.588;2024-03-23T02:05:47;10.27;;;5.90;;
1925;SDS011;964;42.606;23.588;2024-03-23T02:08:13;8.97;;;5.77;;
1925;SDS011;964;42.606;23.588;2024-03-23T02:10:40;10.30;;;5.60;;
1925;SDS011;964;42.606;23.588;2024-03-23T02:13:07;7.47;;;5.83;;
1925;SDS011;964;42.606;23.588;2024-03-23T02:15:34;13.07;;;6.20;;
1925;SDS011;964;42.606;23.588;2024-03-23T02:18:01;10.83;;;6.13;;
1925;SDS011;964;42.606;23.588;2024-03-23T02:20:29;9.93;;;6.50;;
1925;SDS011;964;42.606;23.588;2024-03-23T02:22:56;13.40;;;6.80;;
1925;SDS011;964;42.606;23.588;2024-03-23T02:25:23;15.10;;;5.70;;
1925;SDS011;964;42.606;23.588;2024-03-23T02:27:48;9.00;;;5.47;;
1925;SDS011;964;42.606;23.588;2024-03-23T02:30:15;10.53;;;6.43;;
1925;SDS011;964;42.606;23.588;2024-03-23T02:32:41;9.47;;;6.07;;
1925;SDS011;964;42.606;23.588;2024-03-23T02:35:08;10.50;;;5.97;;
1925;SDS011;964;42.606;23.588;2024-03-23T02:37:34;10.67;;;6.13;;
1925;SDS011;964;42.606;23.588;2024-03-23T02:40:02;9.77;;;6.20;;
1925;SDS011;964;42.606;23.588;2024-03-23T02:42:28;8.83;;;5.17;;
1925;SDS011;964;42.606;23.588;2024-03-23T02:44:54;7.30;;;5.87;;
1925;SDS011;964;42.606;23.588;2024-03-23T02:47:20;8.03;;;4.93;;
1925;SDS011;964;42.606;23.588;2024-03-23T02:49:47;7.10;;;4.20;;
1925;SDS011;964;42.606;23.588;2024-03-23T02:52:13;7.70;;;5.40;;
1925;SDS011;964;42.606;23.588;2024-03-23T02:54:40;6.90;;;5.03;;
1925;SDS011;964;42.606;23.588;2024-03-23T02:57:08;7.17;;;4.50;;
1925;SDS011;964;42.606;23.588;2024-03-23T02:59:35;6.20;;;4.90;;
1925;SDS011;964;42.606;23.588;2024-03-23T03:02:01;6.90;;;4.93;;
1925;SDS011;964;42.606;23.588;2024-03-23T03:04:29;5.83;;;4.30;;
1925;SDS011;964;42.606;23.588;2024-03-23T03:06:55;7.43;;;4.60;;
1925;SDS011;964;42.606;23.588;2024-03-23T03:09:22;8.57;;;4.50;;
1925;SDS011;964;42.606;23.588;2024-03-23T03:11:47;5.70;;;4.83;;
1925;SDS011;964;42.606;23.588;2024-03-23T03:14:16;8.43;;;5.57;;
1925;SDS011;964;42.606;23.588;2024-03-23T03:16:42;10.33;;;5.87;;
1925;SDS011;964;42.606;23.588;2024-03-23T03:19:09;10.03;;;6.63;;
1925;SDS011;964;42.606;23.588;2024-03-23T03:21:35;11.70;;;7.27;;
1925;SDS011;964;42.606;23.588;2024-03-23T03:24:03;13.07;;;7.50;;
1925;SDS011;964;42.606;23.588;2024-03-23T03:26:31;9.00;;;6.00;;
1925;SDS011;964;42.606;23.588;2024-03-23T03:28:58;12.07;;;7.30;;
1925;SDS011;964;42.606;23.588;2024-03-23T03:31:26;16.63;;;8.20;;
1925;SDS011;964;42.606;23.588;2024-03-23T03:33:52;9.97;;;7.40;;
1925;SDS011;964;42.606;23.588;2024-03-23T03:36:18;9.83;;;6.30;;
1925;SDS011;964;42.606;23.588;2024-03-23T03:38:46;9.23;;;6.17;;
1925;SDS011;964;42.606;23.588;2024-03-23T03:41:11;11.47;;;6.80;;
1925;SDS011;964;42.606;23.588;2024-03-23T03:43:38;14.63;;;7.10;;
1925;SDS011;964;42.606;23.588;2024-03-23T03:46:04;10.10;;;7.73;;
1925;SDS011;964;42.606;23.588;2024-03-23T03:48:34;12.60;;;7.53;;
1925;SDS011;964;42.606;23.588;2024-03-23T03:51:00;13.03;;;7.50;;
1925;SDS011;964;42.606;23.588;2024-03-23T03:53:26;12.60;;;7.80;;
1925;SDS011;964;42.606;23.588;2024-03-23T03:55:52;9.80;;;6.30;;
1925;SDS011;964;42.606;23.588;2024-03-23T03:58:19;14.97;;;8.40;;
1925;SDS011;964;42.606;23.588;2024-03-23T04:00:45;18.70;;;9.53;;
1925;SDS011;964;42.606;23.588;2024-03-23T04:03:11;22.57;;;10.70;;
1925;SDS011;964;42.606;23.588;2024-03-23T04:05:39;21.53;;;11.13;;
1925;SDS011;964;42.606;23.588;2024-03-23T04:08:06;20.70;;;11.93;;
1925;SDS011;964;42.606;23.588;2024-03-23T04:10:32;34.10;;;14.20;;
1925;SDS011;964;42.606;23.588;2024-03-23T04:12:59;32.50;;;13.07;;
1925;SDS011;964;42.606;23.588;2024-03-23T04:15:26;23.67;;;10.40;;
1925;SDS011;964;42.606;23.588;2024-03-23T04:17:53;28.37;;;10.80;;
1925;SDS011;964;42.606;23.588;2024-03-23T04:20:18;19.70;;;9.57;;
1925;SDS011;964;42.606;23.588;2024-03-23T04:22:47;15.90;;;9.77;;
1925;SDS011;964;42.606;23.588;2024-03-23T04:25:13;31.70;;;10.90;;
1925;SDS011;964;42.606;23.588;2024-03-23T04:27:40;14.13;;;8.70;;
1925;SDS011;964;42.606;23.588;2024-03-23T04:30:07;15.93;;;6.00;;
1925;SDS011;964;42.606;23.588;2024-03-23T04:32:36;12.53;;;6.40;;
1925;SDS011;964;42.606;23.588;2024-03-23T04:35:02;10.27;;;6.60;;
1925;SDS011;964;42.606;23.588;2024-03-23T04:37:31;8.47;;;5.30;;
1925;SDS011;964;42.606;23.588;2024-03-23T04:40:00;11.43;;;5.87;;
1925;SDS011;964;42.606;23.588;2024-03-23T04:42:27;10.50;;;6.20;;
1925;SDS011;964;42.606;23.588;2024-03-23T04:44:54;10.20;;;5.60;;
1925;SDS011;964;42.606;23.588;2024-03-23T04:47:20;18.73;;;6.73;;
1925;SDS011;964;42.606;23.588;2024-03-23T04:49:47;19.03;;;6.60;;
1925;SDS011;964;42.606;23.588;2024-03-23T04:52:14;16.23;;;5.80;;
1925;SDS011;964;42.606;23.588;2024-03-23T04:54:41;7.57;;;5.17;;
1925;SDS011;964;42.606;23.588;2024-03-23T04:57:10;7.30;;;5.70;;
1925;SDS011;964;42.606;23.588;2024-03-23T04:59:37;10.43;;;6.93;;
1925;SDS011;964;42.606;23.588;2024-03-23T05:02:03;22.60;;;10.87;;
1925;SDS011;964;42.606;23.588;2024-03-23T05:04:30;13.47;;;6.57;;
1925;SDS011;964;42.606;23.588;2024-03-23T05:06:57;20.93;;;7.90;;
1925;SDS011;964;42.606;23.588;2024-03-23T05:09:24;14.40;;;6.50;;
1925;SDS011;964;42.606;23.588;2024-03-23T05:11:50;15.90;;;7.50;;
1925;SDS011;964;42.606;23.588;2024-03-23T05:14:18;10.70;;;6.20;;
1925;SDS011;964;42.606;23.588;2024-03-23T05:16:44;13.17;;;6.50;;
1925;SDS011;964;42.606;23.588;2024-03-23T05:19:11;11.77;;;6.93;;
1925;SDS011;964;42.606;23.588;2024-03-23T05:21:36;12.53;;;6.87;;
1925;SDS011;964;42.606;23.588;2024-03-23T05:24:03;18.73;;;6.23;;
1925;SDS011;964;42.606;23.588;2024-03-23T05:26:30;8.87;;;5.83;;
1925;SDS011;964;42.606;23.588;2024-03-23T05:28:56;10.10;;;6.43;;
1925;SDS011;964;42.606;23.588;2024-03-23T05:31:24;9.53;;;6.80;;
1925;SDS011;964;42.606;23.588;2024-03-23T05:33:51;11.77;;;6.40;;
1925;SDS011;964;42.606;23.588;2024-03-23T05:36:16;7.97;;;5.93;;
1925;SDS011;964;42.606;23.588;2024-03-23T05:38:44;10.57;;;6.10;;
1925;SDS011;964;42.606;23.588;2024-03-23T05:41:10;8.97;;;5.40;;
1925;SDS011;964;42.606;23.588;2024-03-23T05:43:36;10.87;;;6.23;;
1925;SDS011;964;42.606;23.588;2024-03-23T05:46:02;10.27;;;7.00;;
1925;SDS011;964;42.606;23.588;2024-03-23T05:48:31;9.90;;;7.03;;
1925;SDS011;964;42.606;23.588;2024-03-23T05:50:57;14.20;;;7.47;;
1925;SDS011;964;42.606;23.588;2024-03-23T05:53:24;13.17;;;7.53;;
1925;SDS011;964;42.606;23.588;2024-03-23T05:55:50;10.17;;;7.50;;
1925;SDS011;964;42.606;23.588;2024-03-23T05:58:19;15.93;;;9.27;;
1925;SDS011;964;42.606;23.588;2024-03-23T06:00:45;14.60;;;8.93;;
1925;SDS011;964;42.606;23.588;2024-03-23T06:03:12;12.10;;;8.13;;
1925;SDS011;964;42.606;23.588;2024-03-23T06:05:39;14.80;;;9.50;;
1925;SDS011;964;42.606;23.588;2024-03-23T06:08:07;15.03;;;8.43;;
1925;SDS011;964;42.606;23.588;2024-03-23T06:10:34;11.40;;;7.30;;
1925;SDS011;964;42.606;23.588;2024-03-23T06:13:01;12.17;;;8.23;;
1925;SDS011;964;42.606;23.588;2024-03-23T06:15:27;15.90;;;9.00;;
1925;SDS011;964;42.606;23.588;2024-03-23T06:17:55;13.97;;;8.93;;
1925;SDS011;964;42.606;23.588;2024-03-23T06:20:21;20.57;;;11.97;;
1925;SDS011;964;42.606;23.588;2024-03-23T06:22:49;13.93;;;8.90;;
1925;SDS011;964;42.606;23.588;2024-03-23T06:25:15;13.30;;;8.43;;
1925;SDS011;964;42.606;23.588;2024-03-23T06:27:42;13.00;;;9.70;;
1925;SDS011;964;42.606;23.588;2024-03-23T06:30:07;13.60;;;9.60;;
1925;SDS011;964;42.606;23.588;2024-03-23T06:32:34;12.83;;;8.93;;
1925;SDS011;964;42.606;23.588;2024-03-23T06:35:00;17.73;;;10.90;;
1925;SDS011;964;42.606;23.588;2024-03-23T06:37:33;18.47;;;10.67;;
1925;SDS011;964;42.606;23.588;2024-03-23T06:40:00;16.13;;;10.20;;
1925;SDS011;964;42.606;23.588;2024-03-23T06:42:27;14.80;;;9.93;;
1925;SDS011;964;42.606;23.588;2024-03-23T06:44:53;15.63;;;10.27;;
1925;SDS011;964;42.606;23.588;2024-03-23T06:47:19;17.17;;;9.47;;
1925;SDS011;964;42.606;23.588;2024-03-23T06:49:45;17.23;;;10.27;;
1925;SDS011;964;42.606;23.588;2024-03-23T06:52:12;16.50;;;10.07;;
1925;SDS011;964;42.606;23.588;2024-03-23T06:54:38;14.87;;;10.03;;
1925;SDS011;964;42.606;23.588;2024-03-23T06:57:06;12.90;;;9.13;;
1925;SDS011;964;42.606;23.588;2024-03-23T06:59:32;16.13;;;10.80;;
1925;SDS011;964;42.606;23.588;2024-03-23T07:01:59;14.27;;;9.70;;
1925;SDS011;964;42.606;23.588;2024-03-23T07:04:24;16.17;;;10.57;;
1925;SDS011;964;42.606;23.588;2024-03-23T07:06:51;16.03;;;10.50;;
1925;SDS011;964;42.606;23.588;2024-03-23T07:09:17;14.80;;;10.30;;
1925;SDS011;964;42.606;23.588;2024-03-23T07:11:45;16.83;;;11.63;;
1925;SDS011;964;42.606;23.588;2024-03-23T07:14:12;16.33;;;12.37;;
1925;SDS011;964;42.606;23.588;2024-03-23T07:16:39;16.53;;;11.97;;
1925;SDS011;964;42.606;23.588;2024-03-23T07:19:05;17.73;;;11.30;;
1925;SDS011;964;42.606;23.588;2024-03-23T07:21:32;14.63;;;11.83;;
1925;SDS011;964;42.606;23.588;2024-03-23T07:23:57;17.27;;;11.13;;
1925;SDS011;964;42.606;23.588;2024-03-23T07:26:24;20.57;;;12.47;;
1925;SDS011;964;42.606;23.588;2024-03-23T07:28:50;15.77;;;11.87;;
1925;SDS011;964;42.606;23.588;2024-03-23T07:31:18;17.53;;;10.90;;
1925;SDS011;964;42.606;23.588;2024-03-23T07:33:45;18.23;;;10.97;;
1925;SDS011;964;42.606;23.588;2024-03-23T07:36:12;13.80;;;10.50;;
1925;SDS011;964;42.606;23.588;2024-03-23T07:38:40;12.23;;;10.10;;
1925;SDS011;964;42.606;23.588;2024-03-23T07:41:07;14.20;;;10.07;;
1925;SDS011;964;42.606;23.588;2024-03-23T07:43:34;13.40;;;10.20;;
1925;SDS011;964;42.606;23.588;2024-03-23T07:46:01;12.20;;;9.80;;
1925;SDS011;964;42.606;23.588;2024-03-23T07:48:30;17.60;;;10.73;;
1925;SDS011;964;42.606;23.588;2024-03-23T07:50:59;14.13;;;9.23;;
1925;SDS011;964;42.606;23.588;2024-03-23T07:53:26;13.87;;;9.70;;
1925;SDS011;964;42.606;23.588;2024-03-23T07:55:57;13.67;;;9.40;;
1925;SDS011;964;42.606;23.588;2024-03-23T07:58:24;15.27;;;9.70;;
1925;SDS011;964;42.606;23.588;2024-03-23T08:00:52;13.80;;;9.40;;
1925;SDS011;964;42.606;23.588;2024-03-23T08:03:18;11.60;;;10.00;;
1925;SDS011;964;42.606;23.588;2024-03-23T08:05:46;11.53;;;8.00;;
1925;SDS011;964;42.606;23.588;2024-03-23T08:08:13;12.30;;;9.33;;
1925;SDS011;964;42.606;23.588;2024-03-23T08:10:47;11.37;;;8.10;;
1925;SDS011;964;42.606;23.588;2024-03-23T08:13:13;13.00;;;8.50;;
1925;SDS011;964;42.606;23.588;2024-03-23T08:15:40;12.80;;;8.13;;
1925;SDS011;964;42.606;23.588;2024-03-23T08:18:05;10.67;;;7.73;;
1925;SDS011;964;42.606;23.588;2024-03-23T08:20:33;10.07;;;7.67;;
1925;SDS011;964;42.606;23.588;2024-03-23T08:23:00;11.47;;;7.57;;
1925;SDS011;964;42.606;23.588;2024-03-23T08:25:30;11.67;;;8.67;;
1925;SDS011;964;42.606;23.588;2024-03-23T08:27:56;11.83;;;8.70;;
1925;SDS011;964;42.606;23.588;2024-03-23T08:30:23;16.70;;;7.67;;
1925;SDS011;964;42.606;23.588;2024-03-23T08:32:49;10.57;;;6.90;;
1925;SDS011;964;42.606;23.588;2024-03-23T08:35:16;8.37;;;6.80;;
1925;SDS011;964;42.606;23.588;2024-03-23T08:37:41;9.90;;;7.57;;
1925;SDS011;964;42.606;23.588;2024-03-23T08:40:10;8.93;;;7.03;;
1925;SDS011;964;42.606;23.588;2024-03-23T08:42:36;8.07;;;7.27;;
1925;SDS011;964;42.606;23.588;2024-03-23T08:45:03;7.97;;;7.17;;
1925;SDS011;964;42.606;23.588;2024-03-23T08:47:33;7.63;;;6.83;;
1925;SDS011;964;42.606;23.588;2024-03-23T08:50:01;9.13;;;7.00;;
1925;SDS011;964;42.606;23.588;2024-03-23T08:52:27;8.43;;;6.50;;
1925;SDS011;964;42.606;23.588;2024-03-23T08:54:54;8.93;;;7.37;;
1925;SDS011;964;42.606;23.588;2024-03-23T08:57:22;9.10;;;7.20;;
1925;SDS011;964;42.606;23.588;2024-03-23T08:59:49;9.33;;;6.70;;
1925;SDS011;964;42.606;23.588;2024-03-23T09:02:15;9.20;;;6.43;;
1925;SDS011;964;42.606;23.588;2024-03-23T09:04:42;9.63;;;7.10;;
1925;SDS011;964;42.606;23.588;2024-03-23T09:07:07;9.50;;;6.97;;
1925;SDS011;964;42.606;23.588;2024-03-23T09:09:34;9.40;;;7.40;;
1925;SDS011;964;42.606;23.588;2024-03-23T09:12:00;9.40;;;7.40;;
1925;SDS011;964;42.606;23.588;2024-03-23T09:14:28;8.67;;;6.60;;
1925;SDS011;964;42.606;23.588;2024-03-23T09:16:54;9.40;;;7.10;;
1925;SDS011;964;42.606;23.588;2024-03-23T09:19:21;9.33;;;6.77;;
1925;SDS011;964;42.606;23.588;2024-03-23T09:21:47;10.23;;;6.13;;
1925;SDS011;964;42.606;23.588;2024-03-23T09:24:15;9.20;;;6.70;;
1925;SDS011;964;42.606;23.588;2024-03-23T09:26:41;9.13;;;6.23;;
1925;SDS011;964;42.606;23.588;2024-03-23T09:29:07;7.30;;;6.13;;
1925;SDS011;964;42.606;23.588;2024-03-23T09:31:34;7.53;;;5.97;;
1925;SDS011;964;42.606;23.588;2024-03-23T09:34:03;8.00;;;6.60;;
1925;SDS011;964;42.606;23.588;2024-03-23T09:36:29;8.00;;;6.00;;
1925;SDS011;964;42.606;23.588;2024-03-23T09:38:56;7.17;;;6.00;;
1925;SDS011;964;42.606;23.588;2024-03-23T09:41:22;15.03;;;7.37;;
1925;SDS011;964;42.606;23.588;2024-03-23T09:43:51;9.20;;;6.50;;
1925;SDS011;964;42.606;23.588;2024-03-23T09:46:17;9.00;;;7.00;;
1925;SDS011;964;42.606;23.588;2024-03-23T09:48:47;8.90;;;6.67;;
1925;SDS011;964;42.606;23.588;2024-03-23T09:51:13;8.37;;;6.40;;
1925;SDS011;964;42.606;23.588;2024-03-23T09:53:40;7.33;;;5.90;;
1925;SDS011;964;42.606;23.588;2024-03-23T09:56:07;8.67;;;6.77;;
1925;SDS011;964;42.606;23.588;2024-03-23T09:58:34;14.10;;;6.20;;
1925;SDS011;964;42.606;23.588;2024-03-23T10:00:59;6.80;;;6.07;;
1925;SDS011;964;42.606;23.588;2024-03-23T10:03:26;7.37;;;6.60;;
1925;SDS011;964;42.606;23.588;2024-03-23T10:06:01;6.97;;;6.27;;
1925;SDS011;964;42.606;23.588;2024-03-23T10:08:29;7.67;;;6.03;;
1925;SDS011;964;42.606;23.588;2024-03-23T10:10:55;9.00;;;5.77;;
1925;SDS011;964;42.606;23.588;2024-03-23T10:13:25;7.53;;;6.30;;
1925;SDS011;964;42.606;23.588;2024-03-23T10:15:55;7.27;;;6.57;;
1925;SDS011;964;42.606;23.588;2024-03-23T10:18:24;7.20;;;5.83;;
1925;SDS011;964;42.606;23.588;2024-03-23T10:20:51;7.97;;;5.87;;
1925;SDS011;964;42.606;23.588;2024-03-23T10:23:21;6.77;;;5.30;;
1925;SDS011;964;42.606;23.588;2024-03-23T10:25:48;6.80;;;5.50;;
1925;SDS011;964;42.606;23.588;2024-03-23T10:28:15;9.10;;;5.50;;
1925;SDS011;964;42.606;23.588;2024-03-23T10:30:41;6.80;;;6.20;;
1925;SDS011;964;42.606;23.588;2024-03-23T10:33:08;7.07;;;6.30;;
1925;SDS011;964;42.606;23.588;2024-03-23T10:35:34;5.73;;;5.13;;
1925;SDS011;964;42.606;23.588;2024-03-23T10:38:03;8.97;;;5.50;;
1925;SDS011;964;42.606;23.588;2024-03-23T10:40:32;6.47;;;5.13;;
1925;SDS011;964;42.606;23.588;2024-03-23T10:43:01;8.10;;;5.80;;
1925;SDS011;964;42.606;23.588;2024-03-23T10:45:28;6.70;;;5.20;;
1925;SDS011;964;42.606;23.588;2024-03-23T10:47:56;6.57;;;5.87;;
1925;SDS011;964;42.606;23.588;2024-03-23T10:50:22;5.47;;;4.97;;
1925;SDS011;964;42.606;23.588;2024-03-23T10:52:49;5.10;;;4.60;;
1925;SDS011;964;42.606;23.588;2024-03-23T10:55:18;5.17;;;4.17;;
1925;SDS011;964;42.606;23.588;2024-03-23T10:57:49;6.30;;;4.97;;
1925;SDS011;964;42.606;23.588;2024-03-23T11:00:18;8.30;;;4.90;;
1925;SDS011;964;42.606;23.588;2024-03-23T11:02:47;9.23;;;4.73;;
1925;SDS011;964;42.606;23.588;2024-03-23T11:05:28;8.97;;;4.57;;
1925;SDS011;964;42.606;23.588;2024-03-23T11:07:56;7.67;;;4.90;;
1925;SDS011;964;42.606;23.588;2024-03-23T11:10:25;5.80;;;4.67;;
1925;SDS011;964;42.606;23.588;2024-03-23T11:12:55;5.63;;;4.77;;
1925;SDS011;964;42.606;23.588;2024-03-23T11:15:21;4.63;;;4.23;;
1925;SDS011;964;42.606;23.588;2024-03-23T11:18:03;4.60;;;4.10;;
1925;SDS011;964;42.606;23.588;2024-03-23T11:20:33;6.87;;;4.87;;
1925;SDS011;964;42.606;23.588;2024-03-23T11:23:00;5.30;;;4.60;;
1925;SDS011;964;42.606;23.588;2024-03-23T11:25:27;5.33;;;4.20;;
1925;SDS011;964;42.606;23.588;2024-03-23T11:27:56;5.10;;;4.23;;
1925;SDS011;964;42.606;23.588;2024-03-23T11:30:24;5.13;;;4.20;;
1925;SDS011;964;42.606;23.588;2024-03-23T11:32:51;9.00;;;4.97;;
1925;SDS011;964;42.606;23.588;2024-03-23T11:35:25;4.53;;;4.13;;
1925;SDS011;964;42.606;23.588;2024-03-23T11:38:06;4.80;;;4.13;;
1925;SDS011;964;42.606;23.588;2024-03-23T11:40:33;4.13;;;3.73;;
1925;SDS011;964;42.606;23.588;2024-03-23T11:43:02;5.20;;;4.70;;
1925;SDS011;964;42.606;23.588;2024-03-23T11:45:33;6.07;;;4.40;;
1925;SDS011;964;42.606;23.588;2024-03-23T11:48:02;6.67;;;5.33;;
1925;SDS011;964;42.606;23.588;2024-03-23T11:50:29;6.50;;;4.60;;
1925;SDS011;964;42.606;23.588;2024-03-23T11:53:06;4.80;;;3.63;;
1925;SDS011;964;42.606;23.588;2024-03-23T11:55:41;7.37;;;4.10;;
1925;SDS011;964;42.606;23.588;2024-03-23T11:58:10;4.70;;;4.20;;
1925;SDS011;964;42.606;23.588;2024-03-23T12:00:37;4.33;;;3.57;;
1925;SDS011;964;42.606;23.588;2024-03-23T12:03:04;5.80;;;4.23;;
1925;SDS011;964;42.606;23.588;2024-03-23T12:05:31;4.60;;;4.20;;
1925;SDS011;964;42.606;23.588;2024-03-23T12:10:44;4.70;;;4.23;;
1925;SDS011;964;42.606;23.588;2024-03-23T12:13:15;4.40;;;4.00;;
1925;SDS011;964;42.606;23.588;2024-03-23T12:15:44;4.40;;;4.00;;
1925;SDS011;964;42.606;23.588;2024-03-23T12:18:10;5.93;;;4.63;;
1925;SDS011;964;42.606;23.588;2024-03-23T12:20:37;5.43;;;3.90;;
1925;SDS011;964;42.606;23.588;2024-03-23T12:23:04;3.70;;;3.40;;
1925;SDS011;964;42.606;23.588;2024-03-23T12:25:32;5.03;;;3.97;;
1925;SDS011;964;42.606;23.588;2024-03-23T12:27:58;4.83;;;4.00;;
1925;SDS011;964;42.606;23.588;2024-03-23T12:30:27;5.60;;;4.00;;
1925;SDS011;964;42.606;23.588;2024-03-23T12:32:53;3.63;;;3.33;;
1925;SDS011;964;42.606;23.588;2024-03-23T12:35:20;4.43;;;3.87;;
1925;SDS011;964;42.606;23.588;2024-03-23T12:37:45;4.80;;;4.27;;
1925;SDS011;964;42.606;23.588;2024-03-23T12:40:12;4.20;;;3.50;;
1925;SDS011;964;42.606;23.588;2024-03-23T12:42:40;4.40;;;4.00;;
1925;SDS011;964;42.606;23.588;2024-03-23T12:45:07;10.40;;;4.20;;
1925;SDS011;964;42.606;23.588;2024-03-23T12:47:35;5.13;;;3.83;;
1925;SDS011;964;42.606;23.588;2024-03-23T12:50:02;4.33;;;3.50;;
1925;SDS011;964;42.606;23.588;2024-03-23T12:52:28;6.10;;;4.30;;
1925;SDS011;964;42.606;23.588;2024-03-23T12:54:55;4.63;;;4.13;;
1925;SDS011;964;42.606;23.588;2024-03-23T12:57:22;4.87;;;3.70;;
1925;SDS011;964;42.606;23.588;2024-03-23T12:59:52;4.50;;;4.10;;
1925;SDS011;964;42.606;23.588;2024-03-23T13:02:19;6.67;;;4.90;;
1925;SDS011;964;42.606;23.588;2024-03-23T13:04:49;5.07;;;4.07;;
1925;SDS011;964;42.606;23.588;2024-03-23T13:07:15;3.70;;;3.40;;
1925;SDS011;964;42.606;23.588;2024-03-23T13:09:42;4.13;;;3.60;;
1925;SDS011;964;42.606;23.588;2024-03-23T13:12:08;4.50;;;4.07;;
1925;SDS011;964;42.606;23.588;2024-03-23T13:14:37;5.80;;;3.60;;
1925;SDS011;964;42.606;23.588;2024-03-23T13:17:04;5.80;;;4.10;;
1925;SDS011;964;42.606;23.588;2024-03-23T13:19:31;3.93;;;3.63;;
1925;SDS011;964;42.606;23.588;2024-03-23T13:21:58;3.80;;;3.50;;
1925;SDS011;964;42.606;23.588;2024-03-23T13:24:26;5.80;;;4.30;;
1925;SDS011;964;42.606;23.588;2024-03-23T13:26:53;4.90;;;3.70;;
1925;SDS011;964;42.606;23.588;2024-03-23T13:29:20;3.90;;;3.33;;
1925;SDS011;964;42.606;23.588;2024-03-23T13:31:47;6.17;;;3.70;;
1925;SDS011;964;42.606;23.588;2024-03-23T13:34:15;3.67;;;3.27;;
1925;SDS011;964;42.606;23.588;2024-03-23T13:36:41;4.77;;;3.40;;
1925;SDS011;964;42.606;23.588;2024-03-23T13:39:09;7.30;;;3.67;;
1925;SDS011;964;42.606;23.588;2024-03-23T13:41:37;3.50;;;3.20;;
1925;SDS011;964;42.606;23.588;2024-03-23T13:44:05;4.00;;;3.60;;
1925;SDS011;964;42.606;23.588;2024-03-23T13:46:31;5.10;;;3.90;;
1925;SDS011;964;42.606;23.588;2024-03-23T13:48:58;4.50;;;4.10;;
1925;SDS011;964;42.606;23.588;2024-03-23T13:51:24;4.57;;;3.87;;
1925;SDS011;964;42.606;23.588;2024-03-23T13:53:52;3.97;;;3.60;;
1925;SDS011;964;42.606;23.588;2024-03-23T13:56:20;3.80;;;3.50;;
1925;SDS011;964;42.606;23.588;2024-03-23T13:58:47;4.40;;;3.90;;
1925;SDS011;964;42.606;23.588;2024-03-23T14:01:13;4.47;;;4.07;;
1925;SDS011;964;42.606;23.588;2024-03-23T14:03:40;4.80;;;4.13;;
1925;SDS011;964;42.606;23.588;2024-03-23T14:06:06;4.85;;;4.15;;
1925;SDS011;964;42.606;23.588;2024-03-23T14:08:34;4.80;;;4.40;;
1925;SDS011;964;42.606;23.588;2024-03-23T14:11:01;7.80;;;6.13;;
1925;SDS011;964;42.606;23.588;2024-03-23T14:13:31;6.90;;;4.77;;
1925;SDS011;964;42.606;23.588;2024-03-23T14:15:59;8.93;;;5.70;;
1925;SDS011;964;42.606;23.588;2024-03-23T14:18:25;6.73;;;5.47;;
1925;SDS011;964;42.606;23.588;2024-03-23T14:20:51;7.50;;;6.07;;
1925;SDS011;964;42.606;23.588;2024-03-23T14:23:19;6.30;;;5.80;;
1925;SDS011;964;42.606;23.588;2024-03-23T14:25:45;6.90;;;4.73;;
1925;SDS011;964;42.606;23.588;2024-03-23T14:28:11;5.60;;;5.10;;
1925;SDS011;964;42.606;23.588;2024-03-23T14:30:41;11.03;;;5.63;;
1925;SDS011;964;42.606;23.588;2024-03-23T14:33:08;7.83;;;5.20;;
1925;SDS011;964;42.606;23.588;2024-03-23T14:35:34;5.23;;;4.53;;
1925;SDS011;964;42.606;23.588;2024-03-23T14:38:01;5.50;;;4.90;;
1925;SDS011;964;42.606;23.588;2024-03-23T14:40:27;5.90;;;5.37;;
1925;SDS011;964;42.606;23.588;2024-03-23T14:42:54;10.43;;;5.37;;
1925;SDS011;964;42.606;23.588;2024-03-23T14:45:20;5.93;;;4.90;;
1925;SDS011;964;42.606;23.588;2024-03-23T14:47:50;6.43;;;5.07;;
1925;SDS011;964;42.606;23.588;2024-03-23T14:50:16;6.00;;;4.47;;
1925;SDS011;964;42.606;23.588;2024-03-23T14:52:43;6.57;;;4.40;;
1925;SDS011;964;42.606;23.588;2024-03-23T14:55:09;10.17;;;5.37;;
1925;SDS011;964;42.606;23.588;2024-03-23T14:57:36;5.27;;;4.50;;
1925;SDS011;964;42.606;23.588;2024-03-23T15:00:05;4.90;;;4.40;;
1925;SDS011;964;42.606;23.588;2024-03-23T15:02:33;13.43;;;5.40;;
1925;SDS011;964;42.606;23.588;2024-03-23T15:05:01;9.13;;;5.40;;
1925;SDS011;964;42.606;23.588;2024-03-23T15:07:29;6.37;;;5.10;;
1925;SDS011;964;42.606;23.588;2024-03-23T15:09:55;7.00;;;6.23;;
1925;SDS011;964;42.606;23.588;2024-03-23T15:12:21;7.57;;;6.23;;
1925;SDS011;964;42.606;23.588;2024-03-23T15:14:47;10.27;;;7.60;;
1925;SDS011;964;42.606;23.588;2024-03-23T15:17:14;9.20;;;7.07;;
1925;SDS011;964;42.606;23.588;2024-03-23T15:19:40;8.00;;;6.33;;
1925;SDS011;964;42.606;23.588;2024-03-23T15:22:09;10.90;;;6.97;;
1925;SDS011;964;42.606;23.588;2024-03-23T15:24:35;12.23;;;6.67;;
1925;SDS011;964;42.606;23.588;2024-03-23T15:27:02;11.87;;;7.10;;
1925;SDS011;964;42.606;23.588;2024-03-23T15:29:28;8.50;;;6.00;;
1925;SDS011;964;42.606;23.588;2024-03-23T15:31:55;7.20;;;6.20;;
1925;SDS011;964;42.606;23.588;2024-03-23T15:34:22;7.70;;;6.20;;
1925;SDS011;964;42.606;23.588;2024-03-23T15:36:48;10.63;;;6.70;;
1925;SDS011;964;42.606;23.588;2024-03-23T15:39:16;7.70;;;6.13;;
1925;SDS011;964;42.606;23.588;2024-03-23T15:41:44;21.40;;;13.73;;
1925;SDS011;964;42.606;23.588;2024-03-23T15:44:10;36.33;;;22.90;;
1925;SDS011;964;42.606;23.588;2024-03-23T15:46:37;26.20;;;18.00;;
1925;SDS011;964;42.606;23.588;2024-03-23T15:49:03;41.93;;;19.97;;
1925;SDS011;964;42.606;23.588;2024-03-23T15:51:30;22.30;;;13.60;;
1925;SDS011;964;42.606;23.588;2024-03-23T15:53:58;16.57;;;8.80;;
1925;SDS011;964;42.606;23.588;2024-03-23T15:56:26;14.47;;;7.90;;
1925;SDS011;964;42.606;23.588;2024-03-23T15:58:54;12.00;;;7.47;;
1925;SDS011;964;42.606;23.588;2024-03-23T16:01:21;18.17;;;10.27;;